createdAt,value
2023-12-26T00:06:25.150Z,5
2023-12-26T00:16:26.411Z,4.1
2023-12-26T00:26:27.288Z,5.3
2023-12-26T00:36:28.464Z,4.4
2023-12-26T00:46:29.413Z,5.2
2023-12-26T00:56:30.362Z,5.9
2023-12-26T01:06:31.367Z,5.1
2023-12-26T01:16:32.328Z,6.3
2023-12-26T01:26:33.418Z,4.3
2023-12-26T01:36:36.606Z,5.7
2023-12-26T01:46:35.350Z,5.2
2023-12-26T01:56:36.319Z,6.2
2023-12-26T02:06:37.196Z,6.4
2023-12-26T02:16:38.195Z,7.5
2023-12-26T02:26:39.366Z,9.9
2023-12-26T02:36:40.228Z,6.2
2023-12-26T02:46:41.163Z,8.7
2023-12-26T02:56:42.323Z,8
2023-12-26T03:06:44.694Z,5.8
2023-12-26T03:16:44.394Z,4.8
2023-12-26T03:26:46.175Z,11.4
2023-12-26T03:36:46.500Z,7.2
2023-12-26T03:46:51.456Z,9.5
2023-12-26T03:56:48.141Z,11.2
2023-12-26T04:06:49.256Z,4.9
2023-12-26T04:16:51.468Z,6.4
2023-12-26T04:26:51.107Z,5.3
2023-12-26T04:36:53.522Z,6.1
2023-12-26T04:46:53.071Z,6.9
2023-12-26T04:56:54.067Z,7
2023-12-26T05:06:55.167Z,8.1
2023-12-26T05:16:56.182Z,11.2
2023-12-26T05:26:57.098Z,9.5
2023-12-26T05:36:58.206Z,12
2023-12-26T05:46:59.362Z,6.8
2023-12-26T05:57:00.297Z,11.6
2023-12-26T06:07:01.536Z,7.3
2023-12-26T06:17:02.539Z,5.4
2023-12-26T06:27:03.535Z,7.7
2023-12-26T06:37:04.670Z,5.3
2023-12-26T06:47:05.673Z,10.4
2023-12-26T06:57:06.734Z,10
2023-12-26T07:07:07.724Z,6
2023-12-26T07:17:08.966Z,7.3
2023-12-26T07:27:10.048Z,6.8
2023-12-26T07:37:11.211Z,9.4
2023-12-26T07:47:12.080Z,8.2
2023-12-26T07:57:13.032Z,9.5
2023-12-26T08:07:15.307Z,5.3
2023-12-26T08:17:15.147Z,7
2023-12-26T08:27:16.234Z,13.2
2023-12-26T08:37:17.361Z,8.9
2023-12-26T08:47:18.338Z,11.6
2023-12-26T08:57:19.442Z,6.6
2023-12-26T09:07:20.779Z,9.3
2023-12-26T09:17:21.765Z,9.9
2023-12-26T09:27:23.081Z,6.8
2023-12-26T09:37:24.044Z,9
2023-12-26T09:47:25.084Z,6.5
2023-12-26T09:57:26.272Z,4.7
2023-12-26T10:07:27.544Z,7.3
2023-12-26T10:17:28.479Z,5
2023-12-26T10:27:29.469Z,5.3
2023-12-26T10:37:32.832Z,2.7
2023-12-26T10:47:31.868Z,2.3
2023-12-26T10:57:32.882Z,3.3
2023-12-26T11:07:35.230Z,4.2
2023-12-26T11:17:35.136Z,4.2
2023-12-26T11:27:36.279Z,5.2
2023-12-26T11:37:37.471Z,3.2
2023-12-26T11:47:38.598Z,2.7
2023-12-26T11:57:39.805Z,4.2
2023-12-26T12:07:41.189Z,3.1
2023-12-26T12:17:41.967Z,2.2
2023-12-26T12:27:43.112Z,2.6
2023-12-26T12:37:46.668Z,3.9
2023-12-26T12:47:45.376Z,2.6
2023-12-26T12:57:46.874Z,2
2023-12-26T13:07:47.723Z,4.8
2023-12-26T13:17:48.752Z,2.3
2023-12-26T13:27:52.764Z,3.8
2023-12-26T13:37:50.906Z,6.4
2023-12-26T13:47:52.204Z,5.1
2023-12-26T13:57:53.303Z,7.7
2023-12-26T14:07:54.481Z,8.5
2023-12-26T14:17:55.953Z,5.4
2023-12-26T14:27:57.019Z,5.2
2023-12-26T14:37:58.350Z,7.2
2023-12-26T14:48:04.314Z,5.6
2023-12-26T14:58:01.887Z,2.7
2023-12-26T15:07:55.361Z,2.7
2023-12-26T15:08:02.106Z,3.6
2023-12-26T15:18:08.396Z,4.7
2023-12-26T15:28:07.334Z,3.5
2023-12-26T15:38:10.435Z,2.7
2023-12-26T15:48:07.523Z,3
2023-12-26T15:58:28.654Z,2.8
2023-12-26T16:08:12.882Z,3.8
2023-12-26T16:18:11.545Z,3
2023-12-26T16:24:28.725Z,3
2023-12-26T16:28:15.376Z,3.1
2023-12-26T16:38:16.950Z,1.8
2023-12-26T16:48:15.848Z,1.7
2023-12-26T16:53:28.705Z,1.7
2023-12-26T16:58:17.397Z,3.4
2023-12-26T17:08:23.300Z,2.4
2023-12-26T17:18:20.527Z,7.1
2023-12-26T17:25:13.016Z,7.1
2023-12-26T17:28:23.157Z,7.1
2023-12-26T17:38:23.700Z,9.3
2023-12-26T17:44:08.862Z,9.3
2023-12-26T17:48:25.360Z,4.8
2023-12-26T17:58:28.185Z,5.1
2023-12-26T18:08:28.690Z,6.4
2023-12-26T18:18:30.001Z,5.6
2023-12-26T18:28:32.595Z,5.4
2023-12-26T18:38:32.942Z,3.3
2023-12-26T18:48:34.963Z,2.4
2023-12-26T18:58:36.235Z,3.3
2023-12-26T19:08:37.938Z,1.9
2023-12-26T19:18:39.613Z,2.5
2023-12-26T19:28:41.689Z,3.3
2023-12-26T19:38:42.805Z,2.7
2023-12-26T19:48:47.422Z,2.1
2023-12-26T19:58:46.127Z,3.2
2023-12-26T20:08:47.821Z,3.5
2023-12-26T20:18:50.907Z,3.5
2023-12-26T20:28:53.410Z,2
2023-12-26T20:38:52.455Z,3
2023-12-26T20:48:55.063Z,3.1
2023-12-26T20:58:56.464Z,1.9
2023-12-26T21:08:56.814Z,3.4
2023-12-26T21:18:58.170Z,3.9
2023-12-26T21:27:01.700Z,3.9
2023-12-26T21:28:59.518Z,2.9
2023-12-26T21:39:01.186Z,3.2
2023-12-26T21:47:55.904Z,3.2
2023-12-26T21:49:02.415Z,4.2
2023-12-26T21:59:04.876Z,3.6
2023-12-26T22:09:09.471Z,4.9
2023-12-26T22:19:06.932Z,4.6
2023-12-26T22:29:08.123Z,3.9
2023-12-26T22:39:10.513Z,5
2023-12-26T22:49:10.825Z,3.7
2023-12-26T22:59:11.916Z,4.3
2023-12-26T23:09:13.414Z,4.9
2023-12-26T23:19:14.764Z,3.2
2023-12-26T23:29:17.046Z,5.1
2023-12-26T23:39:17.292Z,4.5
2023-12-26T23:49:19.164Z,6.3
2023-12-26T23:59:20.242Z,5.4
